Time;durP1;ratioP1;P1;durP2;ratioP2;P2;SDS_P1;SDS_P2;PMS_P1;PMS_P2;Temp;Humidity;BMP_temperature;BMP_pressure;BME280_temperature;BME280_humidity;BME280_pressure;Samples;Min_cycle;Max_cycle;Signal;HPM_P1;HPM_P2
2023/09/23 00:02:15;;;;;;;;;0.00;0.00;;;;;15.61;61.31;100680.72;4953517;28;45497;-68
2023/09/23 00:04:41;;;;;;;;;1.00;0.00;;;;;15.55;61.30;100686.78;4940637;28;45284;-69
2023/09/23 00:07:09;;;;;;;;;1.25;0.00;;;;;15.51;61.19;100675.59;4947108;28;46401;-70
2023/09/23 00:09:36;;;;;;;;;0.25;0.25;;;;;15.55;61.13;100690.28;4946908;28;45809;-69
2023/09/23 00:12:02;;;;;;;;;2.33;1.00;;;;;15.57;61.57;100701.66;4947396;28;45492;-69
2023/09/23 00:14:28;;;;;;;;;1.00;1.00;;;;;15.56;61.41;100705.34;4953911;28;45432;-69
2023/09/23 00:16:54;;;;;;;;;3.00;0.67;;;;;15.57;61.68;100707.03;4948224;28;46635;-69
2023/09/23 00:19:19;;;;;;;;;0.00;0.00;;;;;15.25;61.57;100665.19;4948725;28;45356;-69
2023/09/23 00:21:45;;;;;;;;;1.00;1.00;;;;;15.42;62.24;100688.22;4946701;28;45614;-72
2023/09/23 00:24:11;;;;;;;;;1.25;0.25;;;;;15.56;61.64;100720.59;4948487;28;45621;-68
2023/09/23 00:26:36;;;;;;;;;4.00;1.25;;;;;15.43;61.80;100697.91;4947250;28;46671;-68
2023/09/23 00:29:01;;;;;;;;;1.33;1.33;;;;;15.51;61.78;100708.56;4953503;28;45364;-68
2023/09/23 00:31:27;;;;;;;;;0.00;0.00;;;;;15.42;61.88;100720.34;4947352;28;45581;-68
2023/09/23 00:33:52;;;;;;;;;0.00;0.00;;;;;15.41;62.11;100729.38;4947323;28;45433;-68
2023/09/23 00:36:19;;;;;;;;;0.00;0.00;;;;;15.37;62.41;100724.56;4941651;28;54349;-68
2023/09/23 00:38:45;;;;;;;;;0.00;0.00;;;;;15.34;62.21;100715.03;4950645;28;45432;-69
2023/09/23 00:41:12;;;;;;;;;0.00;0.00;;;;;15.33;62.26;100724.06;4949936;28;45651;-67
2023/09/23 00:43:38;;;;;;;;;0.75;0.00;;;;;15.38;62.36;100732.41;4945393;28;45432;-68
2023/09/23 00:46:05;;;;;;;;;1.00;0.00;;;;;15.33;62.00;100726.75;4947103;28;45816;-69
2023/09/23 00:48:38;;;;;;;;;0.00;0.00;;;;;15.33;62.03;100718.72;4934015;28;45276;-68
2023/09/23 00:51:04;;;;;;;;;0.00;0.00;;;;;15.15;62.34;100696.72;4940798;28;45658;-67
2023/09/23 00:53:30;;;;;;;;;0.67;0.67;;;;;15.38;62.39;100726.22;4954400;28;45531;-68
2023/09/23 00:56:00;;;;;;;;;2.00;0.00;;;;;15.38;62.19;100735.09;4946182;28;45629;-67
2023/09/23 00:58:26;;;;;;;;;0.00;0.00;;;;;15.38;62.33;100732.41;4946698;28;45561;-67
2023/09/23 01:00:51;;;;;;;;;2.00;0.00;;;;;15.33;62.24;100726.75;4936166;28;45303;-69
2023/09/23 01:03:18;;;;;;;;;0.00;0.00;;;;;15.27;62.53;100706.03;4947597;28;45503;-67
2023/09/23 01:05:44;;;;;;;;;1.00;0.00;;;;;15.30;62.66;100734.31;4946607;28;46605;-69
2023/09/23 01:08:19;;;;;;;;;0.00;0.00;;;;;15.32;62.48;100735.81;4946492;28;45245;-69
2023/09/23 01:10:47;;;;;;;;;1.00;1.00;;;;;15.32;62.36;100725.09;4944026;28;45507;-67
2023/09/23 01:13:12;;;;;;;;;0.00;0.00;;;;;15.18;62.48;100693.69;4949596;28;45517;-69
2023/09/23 01:15:41;;;;;;;;;1.33;1.33;;;;;15.18;62.40;100707.06;4946197;28;45629;-67
2023/09/23 01:18:07;;;;;;;;;1.00;0.25;;;;;15.31;62.65;100730.63;4946248;28;45560;-69
2023/09/23 01:20:33;;;;;;;;;1.00;1.00;;;;;15.18;62.58;100723.13;4947017;28;45358;-67
2023/09/23 01:22:58;;;;;;;;;3.00;0.00;;;;;15.29;62.88;100733.47;4945395;28;45635;-69
2023/09/23 01:25:25;;;;;;;;;1.00;1.00;;;;;15.29;62.44;100736.16;4947450;28;46304;-69
2023/09/23 01:27:51;;;;;;;;;1.00;1.00;;;;;15.28;62.77;100737.16;4946197;28;45339;-69
2023/09/23 01:30:16;;;;;;;;;2.00;1.50;;;;;15.21;62.59;100718.25;4945189;28;45523;-69
2023/09/23 01:32:41;;;;;;;;;0.00;0.00;;;;;15.36;62.84;100737.13;4946769;28;45298;-67
2023/09/23 01:35:09;;;;;;;;;1.75;0.25;;;;;15.35;62.75;100742.66;4938769;28;45527;-68
2023/09/23 01:37:34;;;;;;;;;1.00;1.00;;;;;15.20;62.42;100715.75;4945429;28;45428;-67
2023/09/23 01:39:59;;;;;;;;;0.00;0.00;;;;;15.34;62.86;100738.31;4938562;28;45271;-68
2023/09/23 01:42:25;;;;;;;;;1.00;0.00;;;;;15.40;62.83;100742.94;4946059;28;45449;-67
2023/09/23 01:44:50;;;;;;;;;2.00;0.00;;;;;15.41;62.55;100739.25;4946272;28;47548;-69
2023/09/23 01:47:17;;;;;;;;;0.33;0.33;;;;;15.35;62.58;100734.59;4933871;28;45453;-68
2023/09/23 01:49:43;;;;;;;;;0.00;0.00;;;;;15.39;62.54;100743.97;4946516;28;45322;-69
2023/09/23 01:52:08;;;;;;;;;1.00;0.75;;;;;15.32;62.59;100738.47;4946125;28;45293;-69
2023/09/23 01:54:34;;;;;;;;;2.00;2.00;;;;;15.28;62.63;100739.84;4947185;28;47472;-68
2023/09/23 01:57:01;;;;;;;;;2.25;0.00;;;;;15.24;62.95;100737.69;4949868;28;45307;-68
2023/09/23 01:59:27;;;;;;;;;2.00;0.25;;;;;15.37;62.74;100754.03;4948302;28;45369;-67
2023/09/23 02:01:52;;;;;;;;;2.00;1.00;;;;;15.40;62.50;100748.31;4938990;28;45497;-68
2023/09/23 02:04:17;;;;;;;;;0.75;0.75;;;;;15.42;62.67;100747.16;4953368;28;45414;-67
2023/09/23 02:06:43;;;;;;;;;1.00;1.00;;;;;15.07;62.53;100696.75;4945674;28;45509;-68
2023/09/23 02:09:09;;;;;;;;;1.00;1.00;;;;;15.37;63.17;100754.03;4946273;28;45391;-68
2023/09/23 02:11:37;;;;;;;;;1.00;0.00;;;;;15.33;62.56;100761.56;4946017;28;45299;-68
2023/09/23 02:14:05;;;;;;;;;0.00;0.00;;;;;15.31;62.66;100771.63;4945780;28;47003;-69
2023/09/23 02:16:30;;;;;;;;;0.25;0.25;;;;;15.27;62.81;100769.47;4948273;28;45561;-67
2023/09/23 02:18:56;;;;;;;;;0.75;0.00;;;;;15.22;63.12;100751.25;4950361;28;45358;-68
2023/09/23 02:21:21;;;;;;;;;1.50;1.00;;;;;15.28;63.03;100769.31;4948694;28;45438;-68
2023/09/23 02:23:46;;;;;;;;;0.00;0.00;;;;;15.22;63.13;100767.34;4948875;28;49240;-67
2023/09/23 02:26:12;;;;;;;;;5.00;4.33;;;;;15.25;62.95;100772.34;4948673;28;45383;-68
2023/09/23 02:28:38;;;;;;;;;2.25;1.00;;;;;15.33;62.67;100779.50;4950043;28;45505;-67
2023/09/23 02:31:04;;;;;;;;;0.00;0.00;;;;;15.32;62.79;100793.91;4948103;28;45455;-68
2023/09/23 02:33:30;;;;;;;;;1.75;0.00;;;;;14.94;62.93;100732.09;4949032;28;46841;-69
2023/09/23 02:35:57;;;;;;;;;1.50;1.50;;;;;15.23;63.15;100782.38;4944239;28;45617;-67
2023/09/23 02:38:23;;;;;;;;;0.75;0.50;;;;;15.23;62.99;100790.44;4952623;28;45513;-69
2023/09/23 02:40:50;;;;;;;;;1.00;1.00;;;;;15.18;63.37;100800.81;4949776;28;45640;-68
2023/09/23 02:43:21;;;;;;;;;1.00;0.00;;;;;15.21;62.93;100797.78;4948392;28;46659;-68
2023/09/23 02:45:49;;;;;;;;;0.00;0.00;;;;;15.29;62.90;100811.16;4948757;28;45605;-67
2023/09/23 02:48:14;;;;;;;;;1.33;1.00;;;;;15.23;62.99;100797.63;4949098;28;45419;-68
2023/09/23 02:50:40;;;;;;;;;1.00;0.00;;;;;15.28;62.79;100803.28;4949636;28;45503;-68
2023/09/23 02:53:07;;;;;;;;;0.50;0.50;;;;;15.30;62.95;100796.75;4947899;28;45683;-68
2023/09/23 02:55:32;;;;;;;;;1.00;0.00;;;;;15.14;62.98;100792.28;4941080;28;45288;-68
2023/09/23 02:57:58;;;;;;;;;3.00;1.25;;;;;15.18;62.55;100803.47;4941333;28;45316;-67
2023/09/23 03:00:29;;;;;;;;;0.00;0.00;;;;;15.18;63.16;100819.53;4949073;28;45392;-68
2023/09/23 03:03:01;;;;;;;;;0.25;0.25;;;;;15.16;63.20;100822.41;4948586;28;46777;-68
2023/09/23 03:05:31;;;;;;;;;1.75;0.25;;;;;14.86;63.03;100759.75;4948395;28;45442;-67
2023/09/23 03:07:58;;;;;;;;;0.50;0.50;;;;;15.02;63.18;100792.84;4940317;28;45505;-68
2023/09/23 03:10:39;;;;;;;;;0.50;0.25;;;;;15.08;63.12;100813.56;4954155;28;45630;-68
2023/09/23 03:13:10;;;;;;;;;0.00;0.00;;;;;15.11;62.95;100818.56;4951259;28;45957;-68
2023/09/23 03:16:08;;;;;;;;;2.00;2.00;;;;;14.96;63.20;100805.03;4959416;28;45462;-68
2023/09/23 03:18:36;;;;;;;;;0.00;0.00;;;;;14.99;63.17;100823.44;4951789;28;45340;-68
2023/09/23 03:21:10;;;;;;;;;1.50;1.00;;;;;14.99;63.26;100831.47;4951052;28;45656;-69
2023/09/23 03:23:39;;;;;;;;;0.00;0.00;;;;;14.89;63.70;100842.38;4944809;28;45678;-68
2023/09/23 03:26:04;;;;;;;;;1.00;1.00;;;;;14.91;63.50;100839.53;4950483;28;45404;-69
2023/09/23 03:28:30;;;;;;;;;0.25;0.00;;;;;14.78;63.46;100823.97;4942176;28;45397;-67
2023/09/23 03:31:00;;;;;;;;;0.00;0.00;;;;;14.90;63.33;100844.06;4943231;28;45544;-68
2023/09/23 03:33:27;;;;;;;;;0.00;0.00;;;;;14.84;63.53;100850.09;4951229;28;46184;-66
2023/09/23 03:35:53;;;;;;;;;1.50;1.00;;;;;14.78;63.75;100858.78;4943071;28;45367;-68
2023/09/23 03:38:19;;;;;;;;;0.00;0.00;;;;;14.73;64.28;100860.28;4944671;28;45312;-67
2023/09/23 03:40:56;;;;;;;;;0.00;0.00;;;;;14.71;63.79;100865.81;4944608;28;45568;-69
2023/09/23 03:43:22;;;;;;;;;1.00;1.00;;;;;14.68;64.36;100860.81;4948647;28;47647;-68
2023/09/23 03:45:48;;;;;;;;;0.75;0.75;;;;;14.68;64.21;100870.66;4947732;28;45834;-67
2023/09/23 03:48:15;;;;;;;;;0.00;0.00;;;;;14.67;64.26;100864.47;4943243;28;45499;-68
2023/09/23 03:50:40;;;;;;;;;2.00;0.00;;;;;14.67;64.44;100872.50;4951062;28;45435;-68
2023/09/23 03:53:05;;;;;;;;;1.25;1.00;;;;;14.65;64.69;100869.16;4947777;28;60920;-68
2023/09/23 03:55:31;;;;;;;;;2.00;0.00;;;;;14.65;64.33;100862.97;4947163;28;50137;-67
2023/09/23 03:57:57;;;;;;;;;1.00;1.00;;;;;14.33;64.36;100805.75;4948158;28;45231;-69
2023/09/23 04:00:26;;;;;;;;;1.00;0.00;;;;;14.65;63.79;100861.16;4943954;28;45537;-69
2023/09/23 04:02:52;;;;;;;;;1.25;1.00;;;;;14.57;64.27;100853.09;4950892;28;45656;-68
2023/09/23 04:05:19;;;;;;;;;1.00;1.00;;;;;14.29;64.23;100805.25;4940218;28;45300;-68
2023/09/23 04:07:49;;;;;;;;;2.00;0.00;;;;;14.64;64.10;100870.19;4947200;28;45265;-68
2023/09/23 04:10:19;;;;;;;;;1.00;1.00;;;;;14.57;64.38;100869.97;4947488;28;45464;-69
2023/09/23 04:12:45;;;;;;;;;1.00;1.00;;;;;14.56;64.66;100872.84;4947556;28;46658;-67
2023/09/23 04:15:11;;;;;;;;;0.67;0.67;;;;;14.31;64.52;100827.31;4947573;28;45737;-67
2023/09/23 04:17:40;;;;;;;;;3.67;0.00;;;;;14.57;64.42;100875.34;4947386;28;45307;-68
2023/09/23 04:20:09;;;;;;;;;0.00;0.00;;;;;14.56;64.57;100879.00;4947664;28;45477;-68
2023/09/23 04:22:36;;;;;;;;;0.00;0.00;;;;;14.56;64.50;100878.19;4950076;28;47388;-67
2023/09/23 04:25:03;;;;;;;;;0.25;0.25;;;;;14.14;64.86;100819.44;4950225;28;45460;-69
2023/09/23 04:27:28;;;;;;;;;3.50;0.25;;;;;14.21;64.67;100837.31;4946973;28;45446;-68
2023/09/23 04:29:54;;;;;;;;;0.75;0.00;;;;;14.46;64.98;100885.53;4947126;28;45358;-67
2023/09/23 04:32:20;;;;;;;;;0.00;0.00;;;;;14.34;65.00;100871.59;4948357;28;46590;-68
2023/09/23 04:34:45;;;;;;;;;4.00;2.67;;;;;14.38;64.98;100886.31;4950423;28;45248;-68
2023/09/23 04:37:12;;;;;;;;;0.50;0.00;;;;;14.46;64.82;100904.28;4941903;28;45447;-69
2023/09/23 04:39:37;;;;;;;;;1.67;0.00;;;;;14.44;64.80;100896.41;4953104;28;45429;-67
2023/09/23 04:42:03;;;;;;;;;0.00;0.00;;;;;14.46;64.78;100898.91;4946839;28;46259;-68
2023/09/23 04:44:33;;;;;;;;;1.00;1.00;;;;;14.43;64.88;100900.09;4942255;28;45422;-68
2023/09/23 04:46:59;;;;;;;;;0.00;0.00;;;;;14.38;64.81;100893.50;4951755;28;45577;-67
2023/09/23 04:49:24;;;;;;;;;1.00;1.00;;;;;14.44;64.79;100912.47;4954226;28;45518;-67
2023/09/23 04:51:50;;;;;;;;;1.33;0.33;;;;;14.07;64.92;100850.53;4946219;28;46151;-69
2023/09/23 04:54:15;;;;;;;;;2.33;1.00;;;;;14.36;64.97;100906.22;4945944;28;63097;-69
2023/09/23 04:56:41;;;;;;;;;0.00;0.00;;;;;14.43;64.84;100928.66;4947206;28;45598;-68
2023/09/23 04:59:07;;;;;;;;;0.00;0.00;;;;;14.42;65.02;100924.31;4946867;28;45429;-68
2023/09/23 05:01:32;;;;;;;;;0.00;0.00;;;;;14.40;64.91;100926.28;4949238;28;47650;-69
2023/09/23 05:03:59;;;;;;;;;2.00;2.00;;;;;14.29;64.84;100909.56;4950197;28;45240;-69
2023/09/23 05:06:25;;;;;;;;;0.00;0.00;;;;;13.99;64.92;100854.00;4942186;28;45256;-67
2023/09/23 05:08:50;;;;;;;;;2.00;1.00;;;;;14.38;64.94;100939.81;4950355;28;45433;-68
2023/09/23 05:11:17;;;;;;;;;0.00;0.00;;;;;14.31;65.22;100939.66;4941746;28;46234;-67
2023/09/23 05:13:42;;;;;;;;;1.00;0.00;;;;;14.31;64.93;100938.81;4946526;28;45548;-67
2023/09/23 05:16:07;;;;;;;;;0.67;0.00;;;;;14.07;65.04;100912.84;4939733;28;45768;-69
2023/09/23 05:18:33;;;;;;;;;0.67;0.00;;;;;14.31;65.04;100950.34;4929316;28;45545;-67
2023/09/23 05:20:58;;;;;;;;;1.00;1.00;;;;;14.30;65.16;100954.03;4946638;28;48650;-69
2023/09/23 05:23:24;;;;;;;;;2.00;0.50;;;;;14.24;65.15;100932.44;4938556;28;45349;-69
2023/09/23 05:25:50;;;;;;;;;4.50;1.00;;;;;14.10;65.42;100920.53;4942747;28;45584;-69
2023/09/23 05:28:15;;;;;;;;;2.00;1.00;;;;;14.22;65.21;100943.31;4949676;28;45413;-67
2023/09/23 05:30:41;;;;;;;;;2.00;1.00;;;;;14.27;65.12;100962.38;4941675;28;47106;-68
2023/09/23 05:33:06;;;;;;;;;3.50;0.75;;;;;14.23;65.10;100960.19;4940241;28;46277;-68
2023/09/23 05:35:32;;;;;;;;;1.00;1.00;;;;;14.10;65.10;100949.94;4947429;28;45584;-68
2023/09/23 05:37:57;;;;;;;;;0.00;0.00;;;;;14.23;65.04;100977.06;4943483;28;45460;-67
2023/09/23 05:42:51;;;;;;;;;0.67;0.67;;;;;14.24;65.07;100989.44;4941383;28;45294;-66
2023/09/23 05:45:23;;;;;;;;;2.00;1.00;;;;;14.26;65.02;100997.31;4949702;28;46317;-68
2023/09/23 05:47:48;;;;;;;;;1.00;0.00;;;;;14.24;64.95;101002.81;4941588;28;45421;-67
2023/09/23 05:50:15;;;;;;;;;0.67;0.67;;;;;14.22;65.24;101004.81;4952550;28;45775;-69
2023/09/23 05:52:40;;;;;;;;;1.67;0.67;;;;;14.25;64.63;101014.34;4952119;28;45236;-68
2023/09/23 05:55:07;;;;;;;;;0.00;0.00;;;;;14.11;65.34;100986.38;4957231;28;45590;-69
2023/09/23 05:57:34;;;;;;;;;3.00;1.00;;;;;14.25;65.05;101023.22;4931407;28;45552;-68
2023/09/23 06:00:00;;;;;;;;;0.67;0.00;;;;;13.88;65.26;100963.88;4952389;28;46615;-68
2023/09/23 06:02:25;;;;;;;;;1.00;1.00;;;;;14.24;65.36;101023.38;4951140;28;46487;-67
2023/09/23 06:04:51;;;;;;;;;0.00;0.00;;;;;14.23;64.99;101032.41;4954936;28;45546;-69
2023/09/23 06:07:17;;;;;;;;;2.00;1.00;;;;;14.24;65.36;101029.56;4955224;28;45400;-68
2023/09/23 06:09:43;;;;;;;;;0.33;0.33;;;;;14.22;65.06;101036.06;4947816;28;45635;-67
2023/09/23 06:12:09;;;;;;;;;1.00;0.00;;;;;14.27;64.96;101039.09;4952204;28;45502;-74
2023/09/23 06:14:35;;;;;;;;;1.00;1.00;;;;;14.21;64.80;101029.84;4952215;28;45319;-68
2023/09/23 06:17:00;;;;;;;;;1.00;1.00;;;;;14.30;64.65;101049.47;4952307;28;45355;-69
2023/09/23 06:19:25;;;;;;;;;1.50;0.00;;;;;13.95;64.61;100986.28;4952585;28;46721;-68
2023/09/23 06:21:51;;;;;;;;;1.50;0.50;;;;;14.39;64.49;101063.69;4959907;28;45265;-68
2023/09/23 06:24:16;;;;;;;;;2.75;1.25;;;;;14.35;64.21;101047.13;4947723;28;45479;-67
2023/09/23 06:26:42;;;;;;;;;0.00;0.00;;;;;14.43;64.40;101059.72;4949301;28;45528;-68
2023/09/23 06:29:09;;;;;;;;;0.50;0.50;;;;;14.39;64.11;101047.66;4952941;28;45526;-67
2023/09/23 06:31:34;;;;;;;;;1.25;1.25;;;;;14.50;63.90;101071.47;4950764;28;45418;-69
2023/09/23 06:34:00;;;;;;;;;0.00;0.00;;;;;14.47;63.97;101061.94;4944405;28;45481;-75
2023/09/23 06:36:25;;;;;;;;;1.00;1.00;;;;;14.24;63.50;101013.50;4944554;28;45293;-68
2023/09/23 06:38:51;;;;;;;;;2.00;0.00;;;;;14.58;63.74;101069.66;4951683;28;45837;-68
2023/09/23 06:41:16;;;;;;;;;0.50;0.50;;;;;14.36;63.59;101038.13;4951993;28;59879;-69
2023/09/23 06:43:41;;;;;;;;;3.25;1.00;;;;;14.58;63.63;101064.31;4949074;28;45222;-68
2023/09/23 06:46:07;;;;;;;;;1.67;1.67;;;;;14.73;63.29;101087.78;4948529;28;45308;-69
2023/09/23 06:48:33;;;;;;;;;1.00;1.00;;;;;14.58;63.22;101063.47;4953118;28;51418;-68
2023/09/23 06:51:03;;;;;;;;;1.75;1.75;;;;;14.82;63.19;101090.34;4949803;28;45296;-69
2023/09/23 06:53:29;;;;;;;;;1.75;0.25;;;;;14.82;63.08;101070.75;4952722;28;45327;-69
2023/09/23 06:55:54;;;;;;;;;1.00;1.00;;;;;15.08;62.61;101051.88;4955049;28;45300;-69
2023/09/23 06:58:20;;;;;;;;;4.00;2.67;;;;;15.48;61.78;101092.09;4954419;28;46421;-69
2023/09/23 07:00:45;;;;;;;;;1.50;1.50;;;;;15.82;60.79;101101.84;4944146;28;45383;-69
2023/09/23 07:03:10;;;;;;;;;3.25;3.00;;;;;16.17;60.18;101102.41;4940112;28;45379;-69
2023/09/23 07:05:36;;;;;;;;;0.25;0.25;;;;;16.79;58.98;101102.53;4948649;28;45528;-68
2023/09/23 07:08:01;;;;;;;;;1.00;1.00;;;;;17.73;56.84;101110.31;4926061;28;46452;-67
2023/09/23 07:10:27;;;;;;;;;0.75;0.75;;;;;18.67;54.22;101116.91;4948401;28;45618;-72
2023/09/23 07:12:53;;;;;;;;;4.00;1.50;;;;;19.25;51.82;101061.19;4950012;28;45609;-69
2023/09/23 07:15:18;;;;;;;;;1.00;1.00;;;;;20.09;50.23;101103.59;4949151;28;45469;-68
2023/09/23 07:17:43;;;;;;;;;3.50;3.25;;;;;20.54;49.01;101119.25;4948253;28;46715;-73
2023/09/23 07:20:09;;;;;;;;;1.00;1.00;;;;;20.61;48.50;101119.28;4942486;28;45386;-68
2023/09/23 07:22:35;;;;;;;;;0.50;0.00;;;;;20.35;48.22;101091.09;4948956;28;45499;-67
2023/09/23 07:25:00;;;;;;;;;2.25;2.25;;;;;20.66;48.40;101127.66;4942590;28;45555;-67
2023/09/23 07:27:26;;;;;;;;;1.25;1.25;;;;;20.62;48.00;101083.13;4947343;28;45897;-68
2023/09/23 07:29:51;;;;;;;;;1.75;1.75;;;;;21.08;47.33;101125.72;4947540;28;45446;-68
2023/09/23 07:32:17;;;;;;;;;1.00;1.00;;;;;21.61;46.75;101142.91;4930363;28;47528;-69
2023/09/23 07:34:42;;;;;;;;;1.25;1.00;;;;;22.17;45.34;101129.81;4941759;28;45458;-67
2023/09/23 07:37:08;;;;;;;;;0.50;0.25;;;;;23.00;43.52;101137.28;4951576;28;46733;-69
2023/09/23 07:39:34;;;;;;;;;3.75;2.75;;;;;23.69;42.46;101147.31;4964733;28;45478;-68
2023/09/23 07:41:59;;;;;;;;;1.75;1.00;;;;;24.15;41.15;101156.97;4955601;28;45573;-68
2023/09/23 07:44:25;;;;;;;;;1.25;1.00;;;;;24.32;40.62;101154.53;4953097;28;45486;-69
2023/09/23 07:46:50;;;;;;;;;4.75;2.00;;;;;24.42;39.90;101155.66;4955973;28;46634;-68
2023/09/23 07:49:15;;;;;;;;;5.00;2.50;;;;;24.36;40.37;101140.25;4957489;28;45453;-71
2023/09/23 07:51:41;;;;;;;;;3.00;3.00;;;;;24.51;39.91;101162.47;4946512;28;60841;-68
2023/09/23 07:54:06;;;;;;;;;5.25;5.25;;;;;24.56;40.16;101159.06;4959467;28;45405;-68
2023/09/23 07:56:31;;;;;;;;;4.25;2.75;;;;;24.66;39.64;101159.41;4958476;28;46404;-68
2023/09/23 07:58:57;;;;;;;;;2.25;1.00;;;;;24.79;39.34;101167.38;4959092;28;45573;-68
2023/09/23 08:01:22;;;;;;;;;2.75;2.00;;;;;24.75;39.09;101138.97;4959012;28;45354;-67
2023/09/23 08:03:47;;;;;;;;;2.75;2.00;;;;;25.14;39.04;101172.22;4951100;28;54190;-67
2023/09/23 08:06:13;;;;;;;;;2.25;2.25;;;;;25.22;38.11;101143.84;4943263;28;56330;-67
2023/09/23 08:08:38;;;;;;;;;2.00;2.00;;;;;25.46;37.70;101167.38;4943349;28;45280;-67
2023/09/23 08:11:03;;;;;;;;;2.00;2.00;;;;;25.68;37.18;101208.56;4946394;28;45343;-66
2023/09/23 08:13:29;;;;;;;;;4.00;4.00;;;;;25.59;36.84;101212.63;4936535;28;45678;-67
2023/09/23 08:15:58;;;;;;;;;5.00;3.00;;;;;25.62;36.94;101212.16;4950078;28;45259;-68
2023/09/23 08:18:24;;;;;;;;;1.75;1.75;;;;;25.23;37.03;101173.56;4940795;28;45654;-69
2023/09/23 08:20:56;;;;;;;;;3.00;3.00;;;;;25.16;37.47;101211.72;4940711;28;46881;-68
2023/09/23 08:23:22;;;;;;;;;3.75;2.50;;;;;24.95;37.68;101228.50;4945131;28;45513;-69
2023/09/23 08:25:48;;;;;;;;;3.00;2.00;;;;;24.82;38.00;101234.06;4952805;28;46755;-69
2023/09/23 08:28:13;;;;;;;;;3.00;3.00;;;;;24.57;37.91;101232.25;4946615;28;45541;-69
2023/09/23 08:30:40;;;;;;;;;5.75;4.75;;;;;24.36;38.18;101248.97;4946708;28;45751;-68
2023/09/23 08:33:05;;;;;;;;;3.75;2.75;;;;;24.38;38.75;101243.31;4943089;28;45472;-69
2023/09/23 08:35:31;;;;;;;;;2.50;2.50;;;;;24.42;38.74;101234.47;4943694;28;63185;-70
2023/09/23 08:37:56;;;;;;;;;3.00;3.00;;;;;24.24;38.77;101239.88;4949913;28;45441;-68
2023/09/23 08:40:22;;;;;;;;;3.50;2.75;;;;;24.18;39.08;101244.28;4949483;28;45657;-69
2023/09/23 08:42:54;;;;;;;;;1.00;1.00;;;;;23.90;38.98;101231.13;4945951;28;45546;-69
2023/09/23 08:45:25;;;;;;;;;1.00;1.00;;;;;23.93;39.02;101273.31;4949051;28;47075;-69
2023/09/23 08:47:51;;;;;;;;;1.50;1.50;;;;;23.78;39.09;101270.06;4947585;28;45485;-68
2023/09/23 08:50:19;;;;;;;;;1.00;1.00;;;;;23.40;39.56;101242.88;4938882;28;45687;-68
2023/09/23 08:52:45;;;;;;;;;2.00;2.00;;;;;23.31;39.87;101264.00;4946458;28;45816;-68
2023/09/23 08:55:14;;;;;;;;;1.50;0.00;;;;;23.16;39.95;101285.97;4951978;28;46108;-68
2023/09/23 08:57:40;;;;;;;;;1.25;1.25;;;;;22.96;40.46;101266.22;4952482;28;45347;-71
2023/09/23 09:00:08;;;;;;;;;1.50;0.50;;;;;23.25;40.03;101273.84;4950886;28;45418;-68
2023/09/23 09:02:33;;;;;;;;;0.75;0.75;;;;;23.05;40.28;101259.53;4946403;28;45522;-70
2023/09/23 09:04:59;;;;;;;;;3.00;1.25;;;;;23.52;39.78;101281.88;4938867;28;46795;-69
2023/09/23 09:07:34;;;;;;;;;2.00;2.00;;;;;23.61;39.66;101277.88;4943673;28;45436;-69
2023/09/23 09:10:00;;;;;;;;;4.00;1.00;;;;;23.57;39.34;101287.50;4946765;28;45474;-68
2023/09/23 09:12:25;;;;;;;;;2.00;1.75;;;;;23.48;39.45;101291.50;4946835;28;45450;-68
2023/09/23 09:14:51;;;;;;;;;3.75;2.75;;;;;23.21;39.92;101269.03;4945523;28;45506;-68
2023/09/23 09:17:17;;;;;;;;;3.00;2.00;;;;;23.12;39.96;101294.75;4940981;28;46036;-69
2023/09/23 09:19:42;;;;;;;;;1.75;1.75;;;;;22.47;40.50;101229.59;4946562;28;45539;-68
2023/09/23 09:22:08;;;;;;;;;1.50;1.50;;;;;22.69;41.35;101282.50;4939526;28;45532;-68
2023/09/23 09:24:33;;;;;;;;;4.75;3.25;;;;;22.92;40.86;101292.94;4946059;28;46776;-66
2023/09/23 09:26:59;;;;;;;;;3.00;2.00;;;;;23.46;39.87;101291.72;4953579;28;45524;-68
2023/09/23 09:29:25;;;;;;;;;5.00;4.00;;;;;23.81;39.35;101237.88;4946207;28;45469;-72
2023/09/23 09:31:53;;;;;;;;;1.75;1.75;;;;;24.60;37.90;101230.13;4941567;28;45446;-69
2023/09/23 09:34:24;;;;;;;;;2.25;2.00;;;;;25.43;36.89;101263.94;4940671;28;47408;-69
2023/09/23 09:36:55;;;;;;;;;1.75;1.75;;;;;26.21;35.64;101275.81;4941697;28;45512;-69
2023/09/23 09:39:28;;;;;;;;;1.00;1.00;;;;;26.81;34.91;101281.94;4934629;28;45756;-75
2023/09/23 09:41:54;;;;;;;;;1.25;1.25;;;;;27.31;33.82;101286.88;4945271;28;45610;-68
2023/09/23 09:44:22;;;;;;;;;2.00;1.75;;;;;27.73;33.66;101289.38;4947690;28;46670;-70
2023/09/23 09:46:51;;;;;;;;;0.25;0.25;;;;;27.90;32.82;101276.56;4951486;28;45277;-70
2023/09/23 09:49:17;;;;;;;;;1.00;0.50;;;;;27.97;33.20;101285.44;4946794;28;45422;-68
2023/09/23 09:51:46;;;;;;;;;1.00;1.00;;;;;27.85;32.93;101281.94;4945343;28;45489;-70
2023/09/23 09:54:12;;;;;;;;;2.25;2.25;;;;;27.24;33.34;101256.16;4942039;28;45919;-69
2023/09/23 09:56:42;;;;;;;;;1.00;1.00;;;;;27.01;33.70;101289.75;4943822;28;45276;-69
2023/09/23 09:59:07;;;;;;;;;2.00;2.00;;;;;26.58;34.10;101282.75;4949057;28;45382;-71
2023/09/23 10:01:36;;;;;;;;;1.00;1.00;;;;;26.08;35.13;101285.88;4941216;28;45478;-69
2023/09/23 10:04:09;;;;;;;;;1.25;1.25;;;;;25.71;35.31;101287.91;4940981;28;46070;-70
2023/09/23 10:06:39;;;;;;;;;4.25;2.50;;;;;25.59;35.50;101295.13;4945162;28;45469;-69
2023/09/23 10:09:14;;;;;;;;;2.25;1.25;;;;;25.27;36.27;101297.22;4952689;28;45322;-69
2023/09/23 10:11:39;;;;;;;;;1.75;1.75;;;;;25.05;36.15;101299.56;4945268;28;45641;-71
2023/09/23 10:14:15;;;;;;;;;2.00;0.25;;;;;24.82;36.70;101302.06;4944997;28;46098;-71
2023/09/23 10:16:48;;;;;;;;;0.00;0.00;;;;;23.97;36.84;101240.06;4947923;28;45634;-69
2023/09/23 10:19:15;;;;;;;;;2.00;2.00;;;;;24.08;37.25;101311.03;4946269;28;45442;-70
2023/09/23 10:21:44;;;;;;;;;1.00;1.00;;;;;23.86;37.83;101322.25;4947439;28;45808;-69
2023/09/23 10:24:18;;;;;;;;;2.00;2.00;;;;;23.52;38.06;101279.16;4944723;28;46732;-69
2023/09/23 10:26:43;;;;;;;;;4.00;2.00;;;;;23.51;38.16;101291.06;4940231;28;45564;-71
2023/09/23 10:29:10;;;;;;;;;4.00;2.75;;;;;23.60;37.54;101317.75;4948127;28;45241;-69
2023/09/23 10:31:36;;;;;;;;;1.25;1.25;;;;;23.30;38.43;101265.91;4936686;28;45407;-70
2023/09/23 10:34:06;;;;;;;;;1.00;0.75;;;;;23.41;37.92;101290.66;4934957;28;46584;-70
2023/09/23 10:36:31;;;;;;;;;4.00;2.50;;;;;23.43;37.69;101294.03;4945632;28;45718;-69
2023/09/23 10:38:57;;;;;;;;;2.00;2.00;;;;;23.57;37.97;101329.06;4953992;28;45509;-70
2023/09/23 10:41:34;;;;;;;;;0.50;0.50;;;;;23.55;37.60;101324.84;4952002;28;45596;-70
2023/09/23 10:44:00;;;;;;;;;1.25;1.25;;;;;23.50;38.14;101332.81;4950470;28;47367;-76
2023/09/23 10:46:26;;;;;;;;;2.00;2.00;;;;;23.48;37.94;101330.31;4948120;28;45311;-69
2023/09/23 10:48:51;;;;;;;;;4.00;2.00;;;;;23.51;38.29;101337.19;4942974;28;45282;-69
2023/09/23 10:51:16;;;;;;;;;8.33;8.33;;;;;23.53;38.15;101343.25;4951993;28;50335;-69
2023/09/23 10:53:42;;;;;;;;;1.00;1.00;;;;;23.45;38.03;101332.63;4937802;28;48427;-69
2023/09/23 10:56:10;;;;;;;;;2.00;2.00;;;;;23.36;38.59;101316.56;4947840;28;45259;-69
2023/09/23 10:58:36;;;;;;;;;2.75;2.75;;;;;23.38;38.85;101329.94;4937963;28;45274;-71
2023/09/23 11:01:02;;;;;;;;;3.00;3.00;;;;;23.35;38.47;101316.78;4948081;28;45422;-69
2023/09/23 11:03:29;;;;;;;;;8.00;7.00;;;;;23.45;38.99;101335.34;4945638;28;46625;-70
2023/09/23 11:05:54;;;;;;;;;5.75;5.75;;;;;23.37;38.46;101329.09;4947759;28;45490;-69
2023/09/23 11:08:20;;;;;;;;;3.75;3.00;;;;;23.14;37.81;101290.78;4953034;28;45323;-69
2023/09/23 11:10:48;;;;;;;;;6.00;4.00;;;;;23.32;38.17;101339.75;4949694;28;45664;-70
2023/09/23 11:13:14;;;;;;;;;2.75;2.75;;;;;23.25;38.30;101336.25;4956027;28;47306;-70
2023/09/23 11:15:45;;;;;;;;;4.25;2.50;;;;;23.00;38.87;101305.41;4948742;28;45454;-70
2023/09/23 11:18:13;;;;;;;;;1.00;1.00;;;;;23.19;38.14;101347.94;4951112;28;45414;-70
2023/09/23 11:20:43;;;;;;;;;4.25;2.25;;;;;23.12;37.59;101341.69;4947563;28;45516;-71
2023/09/23 11:23:10;;;;;;;;;3.50;2.50;;;;;23.18;36.72;101348.16;4947529;28;47538;-69
2023/09/23 11:25:36;;;;;;;;;3.50;1.00;;;;;23.05;36.02;101341.72;4958145;28;45535;-70